createdAt,value
2018-03-16T00:00:30.824Z,-73
2018-03-16T00:01:30.923Z,-72
2018-03-16T00:02:30.801Z,-72
2018-03-16T00:03:30.924Z,-73
2018-03-16T00:04:30.804Z,-72
2018-03-16T00:05:30.944Z,-72
2018-03-16T00:06:30.806Z,-72
2018-03-16T00:07:30.922Z,-72
2018-03-16T00:08:30.805Z,-72
2018-03-16T00:09:30.922Z,-71
2018-03-16T00:10:30.830Z,-71
2018-03-16T00:11:30.925Z,-70
2018-03-16T00:12:30.810Z,-71
2018-03-16T00:13:30.929Z,-70
2018-03-16T00:14:30.809Z,-70
2018-03-16T00:15:30.956Z,-71
2018-03-16T00:16:30.811Z,-71
2018-03-16T00:17:30.925Z,-71
2018-03-16T00:18:30.812Z,-71
2018-03-16T00:19:30.931Z,-71
2018-03-16T00:20:30.841Z,-71
2018-03-16T00:21:30.932Z,-71
2018-03-16T00:22:30.815Z,-71
2018-03-16T00:23:30.934Z,-71
2018-03-16T00:24:30.817Z,-71
2018-03-16T00:25:30.956Z,-71
2018-03-16T00:26:30.818Z,-70
2018-03-16T00:27:30.938Z,-71
2018-03-16T00:28:30.820Z,-70
2018-03-16T00:29:30.939Z,-71
2018-03-16T00:30:30.849Z,-71
2018-03-16T00:31:30.941Z,-71
2018-03-16T00:32:30.822Z,-71
2018-03-16T00:33:30.942Z,-70
2018-03-16T00:34:30.828Z,-71
2018-03-16T00:35:30.974Z,-71
2018-03-16T00:36:30.825Z,-71
2018-03-16T00:37:30.945Z,-71
2018-03-16T00:38:30.828Z,-71
2018-03-16T00:39:30.950Z,-70
2018-03-16T00:40:30.853Z,-70
2018-03-16T00:41:30.945Z,-71
2018-03-16T00:42:30.830Z,-70
2018-03-16T00:43:30.950Z,-70
2018-03-16T00:44:30.831Z,-70
2018-03-16T00:45:30.984Z,-70
2018-03-16T00:46:30.834Z,-71
2018-03-16T00:47:30.958Z,-70
2018-03-16T00:48:30.833Z,-70
2018-03-16T00:49:30.955Z,-70
2018-03-16T00:50:30.861Z,-70
2018-03-16T00:51:30.949Z,-69
2018-03-16T00:52:30.836Z,-70
2018-03-16T00:53:30.959Z,-70
2018-03-16T00:54:30.839Z,-70
2018-03-16T00:55:30.987Z,-71
2018-03-16T00:56:30.840Z,-71
2018-03-16T00:57:31.008Z,-71
2018-03-16T00:58:30.842Z,-71
2018-03-16T00:59:30.957Z,-71
2018-03-16T01:00:30.870Z,-71
2018-03-16T01:01:30.961Z,-71
2018-03-16T01:02:30.844Z,-71
2018-03-16T01:03:30.960Z,-72
2018-03-16T01:04:30.845Z,-73
2018-03-16T01:05:30.987Z,-73
2018-03-16T01:06:30.847Z,-72
2018-03-16T01:07:30.965Z,-72
2018-03-16T01:08:30.850Z,-73
2018-03-16T01:09:30.968Z,-73
2018-03-16T01:10:30.874Z,-73
2018-03-16T01:11:30.968Z,-72
2018-03-16T01:12:30.850Z,-73
2018-03-16T01:13:30.966Z,-72
2018-03-16T01:14:30.905Z,-72
2018-03-16T01:15:30.998Z,-72
2018-03-16T01:16:30.854Z,-71
2018-03-16T01:17:30.973Z,-71
2018-03-16T01:18:30.855Z,-71
2018-03-16T01:19:30.971Z,-71
2018-03-16T01:20:30.882Z,-71
2018-03-16T01:21:30.971Z,-73
2018-03-16T01:22:30.859Z,-72
2018-03-16T01:23:30.972Z,-72
2018-03-16T01:24:30.860Z,-74
2018-03-16T01:25:31.006Z,-73
2018-03-16T01:26:30.865Z,-73
2018-03-16T01:27:30.978Z,-73
2018-03-16T01:28:30.865Z,-72
2018-03-16T01:29:30.982Z,-73
2018-03-16T01:30:30.889Z,-73
2018-03-16T01:31:30.983Z,-71
2018-03-16T01:32:30.865Z,-71
2018-03-16T01:33:30.999Z,-71
2018-03-16T01:34:30.865Z,-71
2018-03-16T01:35:31.006Z,-72
2018-03-16T01:36:30.868Z,-72
2018-03-16T01:37:30.980Z,-71
2018-03-16T01:38:30.871Z,-72
2018-03-16T01:39:31.024Z,-72
2018-03-16T01:40:30.895Z,-71
2018-03-16T01:41:30.986Z,-72
2018-03-16T01:42:30.873Z,-73
2018-03-16T01:43:30.991Z,-72
2018-03-16T01:44:30.874Z,-72
2018-03-16T01:45:31.016Z,-73
2018-03-16T01:46:30.874Z,-73
2018-03-16T01:47:30.991Z,-72
2018-03-16T01:48:30.876Z,-73
2018-03-16T01:49:31.155Z,-73
2018-03-16T01:50:30.880Z,-73
2018-03-16T01:51:31.018Z,-72
2018-03-16T01:52:30.878Z,-71
2018-03-16T01:53:30.997Z,-71
2018-03-16T01:54:30.881Z,-71
2018-03-16T01:55:31.000Z,-72
2018-03-16T01:56:30.916Z,-71
2018-03-16T01:57:31.000Z,-71
2018-03-16T01:58:30.885Z,-71
2018-03-16T01:59:31.000Z,-71
2018-03-16T02:00:30.897Z,-73
2018-03-16T02:01:31.027Z,-73
2018-03-16T02:02:30.886Z,-73
2018-03-16T02:03:31.005Z,-73
2018-03-16T02:04:30.893Z,-74
2018-03-16T02:05:31.008Z,-73
2018-03-16T02:06:30.913Z,-74
2018-03-16T02:07:31.005Z,-74
2018-03-16T02:08:30.891Z,-74
2018-03-16T02:09:31.008Z,-72
2018-03-16T02:10:30.895Z,-74
2018-03-16T02:11:31.032Z,-73
2018-03-16T02:12:30.895Z,-73
2018-03-16T02:13:31.010Z,-73
2018-03-16T02:14:30.895Z,-73
2018-03-16T02:15:31.010Z,-73
2018-03-16T02:16:30.922Z,-72
2018-03-16T02:17:31.016Z,-71
2018-03-16T02:18:30.895Z,-72
2018-03-16T02:19:31.019Z,-72
2018-03-16T02:20:30.901Z,-72
2018-03-16T02:21:31.046Z,-72
2018-03-16T02:22:30.901Z,-72
2018-03-16T02:23:31.020Z,-72
2018-03-16T02:24:30.904Z,-72
2018-03-16T02:25:31.018Z,-72
2018-03-16T02:26:30.928Z,-72
2018-03-16T02:27:31.017Z,-72
2018-03-16T02:28:30.905Z,-72
2018-03-16T02:29:31.021Z,-74
2018-03-16T02:30:30.911Z,-75
2018-03-16T02:31:31.054Z,-75
2018-03-16T02:32:30.908Z,-75
2018-03-16T02:33:31.024Z,-74
2018-03-16T02:34:30.916Z,-74
2018-03-16T02:35:31.029Z,-74
2018-03-16T02:36:30.936Z,-74
2018-03-16T02:37:31.027Z,-74
2018-03-16T02:38:30.915Z,-74
2018-03-16T02:39:31.034Z,-74
2018-03-16T02:40:30.913Z,-73
2018-03-16T02:41:31.061Z,-74
2018-03-16T02:42:30.916Z,-74
2018-03-16T02:43:31.035Z,-74
2018-03-16T02:44:30.919Z,-74
2018-03-16T02:45:31.042Z,-74
2018-03-16T02:46:30.945Z,-73
2018-03-16T02:47:31.039Z,-73
2018-03-16T02:48:30.919Z,-73
2018-03-16T02:49:31.041Z,-73
2018-03-16T02:50:30.923Z,-73
2018-03-16T02:51:31.066Z,-73
2018-03-16T02:52:30.923Z,-74
2018-03-16T02:53:31.039Z,-73
2018-03-16T02:54:30.928Z,-73
2018-03-16T02:55:31.043Z,-73
2018-03-16T02:56:30.951Z,-73
2018-03-16T02:57:31.042Z,-73
2018-03-16T02:58:30.929Z,-73
2018-03-16T02:59:31.049Z,-74
2018-03-16T03:00:30.930Z,-74
2018-03-16T03:01:31.071Z,-74
2018-03-16T03:02:30.930Z,-74
2018-03-16T03:03:31.067Z,-74
2018-03-16T03:04:30.931Z,-74
2018-03-16T03:05:31.051Z,-74
2018-03-16T03:06:30.958Z,-75
2018-03-16T03:07:31.046Z,-73
2018-03-16T03:08:31.021Z,-72
2018-03-16T03:09:31.050Z,-72
2018-03-16T03:10:30.934Z,-74
2018-03-16T03:11:31.074Z,-73
2018-03-16T03:12:30.937Z,-73
2018-03-16T03:13:31.053Z,-73
2018-03-16T03:14:30.939Z,-73
2018-03-16T03:15:31.058Z,-73
2018-03-16T03:16:30.972Z,-73
2018-03-16T03:17:31.057Z,-73
2018-03-16T03:18:30.941Z,-74
2018-03-16T03:19:31.055Z,-73
2018-03-16T03:20:30.942Z,-73
2018-03-16T03:21:31.086Z,-73
2018-03-16T03:22:30.943Z,-73
2018-03-16T03:23:31.059Z,-73
2018-03-16T03:24:30.946Z,-73
2018-03-16T03:25:31.064Z,-73
2018-03-16T03:26:30.973Z,-73
2018-03-16T03:27:31.065Z,-73
2018-03-16T03:28:30.948Z,-73
2018-03-16T03:29:31.065Z,-73
2018-03-16T03:30:30.952Z,-73
2018-03-16T03:31:31.092Z,-73
2018-03-16T03:32:30.950Z,-73
2018-03-16T03:33:31.067Z,-74
2018-03-16T03:34:30.958Z,-74
2018-03-16T03:35:31.068Z,-74
2018-03-16T03:36:30.979Z,-73
2018-03-16T03:37:31.071Z,-74
2018-03-16T03:38:30.954Z,-73
2018-03-16T03:39:31.069Z,-74
2018-03-16T03:40:30.956Z,-74
2018-03-16T03:41:31.097Z,-73
2018-03-16T03:42:30.957Z,-74
2018-03-16T03:43:31.075Z,-73
2018-03-16T03:44:30.960Z,-73
2018-03-16T03:45:31.077Z,-73
2018-03-16T03:46:30.985Z,-72
2018-03-16T03:47:31.078Z,-73
2018-03-16T03:48:30.963Z,-72
2018-03-16T03:49:31.080Z,-71
2018-03-16T03:50:30.963Z,-72
2018-03-16T03:51:31.105Z,-72
2018-03-16T03:52:30.965Z,-73
2018-03-16T03:53:31.080Z,-72
2018-03-16T03:54:30.964Z,-71
2018-03-16T03:55:31.084Z,-72
2018-03-16T03:56:31.000Z,-73
2018-03-16T03:57:31.083Z,-72
2018-03-16T03:58:30.968Z,-72
2018-03-16T03:59:31.089Z,-72
2018-03-16T04:00:30.969Z,-72
2018-03-16T04:01:31.111Z,-72
2018-03-16T04:02:30.972Z,-73
2018-03-16T04:03:31.090Z,-72
2018-03-16T04:04:30.972Z,-73
2018-03-16T04:05:31.090Z,-73
2018-03-16T04:06:30.999Z,-74
2018-03-16T04:07:31.090Z,-73
2018-03-16T04:08:30.978Z,-72
2018-03-16T04:09:31.094Z,-72
2018-03-16T04:10:30.979Z,-72
2018-03-16T04:11:31.121Z,-72
2018-03-16T04:12:30.980Z,-72
2018-03-16T04:13:31.101Z,-72
2018-03-16T04:14:30.984Z,-72
2018-03-16T04:15:31.097Z,-73
2018-03-16T04:16:31.015Z,-73
2018-03-16T04:17:31.102Z,-73
2018-03-16T04:18:30.992Z,-74
2018-03-16T04:19:31.097Z,-73
2018-03-16T04:20:30.986Z,-74
2018-03-16T04:21:31.125Z,-73
2018-03-16T04:22:30.992Z,-73
2018-03-16T04:23:31.101Z,-74
2018-03-16T04:24:30.990Z,-74
2018-03-16T04:25:31.108Z,-74
2018-03-16T04:26:31.020Z,-74
2018-03-16T04:27:31.115Z,-74
2018-03-16T04:28:30.992Z,-75
2018-03-16T04:29:31.108Z,-75
2018-03-16T04:30:30.994Z,-74
2018-03-16T04:31:31.136Z,-74
2018-03-16T04:32:30.994Z,-74
2018-03-16T04:33:31.110Z,-73
2018-03-16T04:34:30.994Z,-74
2018-03-16T04:35:31.112Z,-74
2018-03-16T04:36:31.022Z,-73
2018-03-16T04:37:31.115Z,-73
2018-03-16T04:38:31.008Z,-74
2018-03-16T04:39:31.115Z,-74
2018-03-16T04:40:30.999Z,-74
2018-03-16T04:41:31.142Z,-74
2018-03-16T04:42:31.001Z,-74
2018-03-16T04:43:31.179Z,-75
2018-03-16T04:44:31.001Z,-75
2018-03-16T04:45:31.122Z,-75
2018-03-16T04:46:31.030Z,-76
2018-03-16T04:47:31.119Z,-76
2018-03-16T04:48:31.008Z,-74
2018-03-16T04:49:31.122Z,-76
2018-03-16T04:50:31.014Z,-74
2018-03-16T04:51:31.151Z,-75
2018-03-16T04:52:31.008Z,-75
2018-03-16T04:53:31.124Z,-75
2018-03-16T04:54:31.011Z,-75
2018-03-16T04:55:31.176Z,-75
2018-03-16T04:56:31.041Z,-75
2018-03-16T04:57:31.128Z,-75
2018-03-16T04:58:31.012Z,-75
2018-03-16T04:59:31.139Z,-73
2018-03-16T05:00:31.014Z,-73
2018-03-16T05:01:31.155Z,-74
2018-03-16T05:02:31.024Z,-74
2018-03-16T05:03:31.135Z,-74
2018-03-16T05:04:31.018Z,-74
2018-03-16T05:05:31.130Z,-73
2018-03-16T05:06:31.042Z,-73
2018-03-16T05:07:31.131Z,-74
2018-03-16T05:08:31.032Z,-73
2018-03-16T05:09:31.136Z,-74
2018-03-16T05:10:31.022Z,-74
2018-03-16T05:11:31.135Z,-74
2018-03-16T05:12:31.048Z,-75
2018-03-16T05:13:31.206Z,-74
2018-03-16T05:14:31.030Z,-73
2018-03-16T05:15:31.143Z,-73
2018-03-16T05:16:31.026Z,-72
2018-03-16T05:17:31.167Z,-73
2018-03-16T05:18:31.037Z,-73
2018-03-16T05:19:31.146Z,-74
2018-03-16T05:20:31.043Z,-74
2018-03-16T05:21:31.151Z,-74
2018-03-16T05:22:31.058Z,-73
2018-03-16T05:23:31.148Z,-73
2018-03-16T05:24:31.032Z,-73
2018-03-16T05:25:31.145Z,-73
2018-03-16T05:26:31.034Z,-74
2018-03-16T05:27:31.171Z,-73
2018-03-16T05:28:31.032Z,-73
2018-03-16T05:29:31.153Z,-74
2018-03-16T05:30:31.035Z,-74
2018-03-16T05:31:31.154Z,-74
2018-03-16T05:32:31.063Z,-74
2018-03-16T05:33:31.154Z,-74
2018-03-16T05:34:31.039Z,-74
2018-03-16T05:35:31.155Z,-73
2018-03-16T05:36:31.039Z,-73
2018-03-16T05:37:31.180Z,-75
2018-03-16T05:38:31.042Z,-75
2018-03-16T05:39:31.157Z,-76
2018-03-16T05:40:31.042Z,-74
2018-03-16T05:41:31.159Z,-74
2018-03-16T05:42:31.069Z,-73
2018-03-16T05:43:31.168Z,-73
2018-03-16T05:44:31.045Z,-73
2018-03-16T05:45:31.158Z,-71
2018-03-16T05:46:31.046Z,-71
2018-03-16T05:47:31.194Z,-71
2018-03-16T05:48:31.047Z,-71
2018-03-16T05:49:31.167Z,-71
2018-03-16T05:50:31.049Z,-71
2018-03-16T05:51:31.168Z,-71
2018-03-16T05:52:31.074Z,-71
2018-03-16T05:53:31.171Z,-71
2018-03-16T05:54:31.053Z,-71
2018-03-16T05:55:31.168Z,-71
2018-03-16T05:56:31.054Z,-71
2018-03-16T05:57:31.195Z,-70
2018-03-16T05:58:31.052Z,-70
2018-03-16T05:59:31.169Z,-71
2018-03-16T06:00:31.057Z,-70
2018-03-16T06:01:31.176Z,-71
2018-03-16T06:02:31.082Z,-71
2018-03-16T06:03:31.173Z,-71
2018-03-16T06:04:31.060Z,-70
2018-03-16T06:05:31.170Z,-71
2018-03-16T06:06:31.088Z,-70
2018-03-16T06:07:31.200Z,-71
2018-03-16T06:08:31.063Z,-71
2018-03-16T06:09:31.178Z,-71
2018-03-16T06:10:31.065Z,-71
2018-03-16T06:11:31.276Z,-70
2018-03-16T06:12:31.092Z,-71
2018-03-16T06:13:31.179Z,-71
2018-03-16T06:14:31.065Z,-70
2018-03-16T06:15:31.181Z,-71
2018-03-16T06:16:31.069Z,-70
2018-03-16T06:17:31.208Z,-70
2018-03-16T06:18:31.070Z,-71
2018-03-16T06:19:31.190Z,-71
2018-03-16T06:20:31.072Z,-70
2018-03-16T06:21:31.194Z,-71
2018-03-16T06:22:31.099Z,-70
2018-03-16T06:23:31.185Z,-70
2018-03-16T06:24:31.075Z,-70
2018-03-16T06:25:31.200Z,-69
2018-03-16T06:26:31.075Z,-70
2018-03-16T06:27:31.216Z,-70
2018-03-16T06:28:31.078Z,-70
2018-03-16T06:29:31.192Z,-70
2018-03-16T06:30:31.077Z,-71
2018-03-16T06:31:31.193Z,-70
2018-03-16T06:32:31.103Z,-70
2018-03-16T06:33:31.198Z,-70
2018-03-16T06:34:31.243Z,-70
2018-03-16T06:35:31.206Z,-70
2018-03-16T06:36:31.082Z,-70
2018-03-16T06:37:31.219Z,-70
2018-03-16T06:38:31.085Z,-71
2018-03-16T06:39:31.197Z,-70
2018-03-16T06:40:31.085Z,-70
2018-03-16T06:41:31.202Z,-71
2018-03-16T06:42:31.111Z,-70
2018-03-16T06:43:31.205Z,-70
2018-03-16T06:44:31.087Z,-70
2018-03-16T06:45:31.202Z,-70
2018-03-16T06:46:31.090Z,-70
2018-03-16T06:47:31.226Z,-71
2018-03-16T06:48:31.092Z,-71
2018-03-16T06:49:31.207Z,-71
2018-03-16T06:50:31.094Z,-71
2018-03-16T06:51:31.214Z,-70
2018-03-16T06:52:31.118Z,-70
2018-03-16T06:53:31.211Z,-70
2018-03-16T06:54:31.095Z,-71
2018-03-16T06:55:31.220Z,-70
2018-03-16T06:56:31.095Z,-70
2018-03-16T06:57:31.238Z,-71
2018-03-16T06:58:31.099Z,-76
2018-03-16T06:59:31.211Z,-70
2018-03-16T07:00:31.102Z,-71
2018-03-16T07:01:31.221Z,-71
2018-03-16T07:02:31.124Z,-70
2018-03-16T07:03:31.219Z,-70
2018-03-16T07:04:31.105Z,-71
2018-03-16T07:05:31.218Z,-71
2018-03-16T07:06:31.103Z,-71
2018-03-16T07:07:31.293Z,-71
2018-03-16T07:08:31.108Z,-71
2018-03-16T07:09:31.223Z,-71
2018-03-16T07:10:31.107Z,-71
2018-03-16T07:11:31.224Z,-71
2018-03-16T07:12:31.134Z,-71
2018-03-16T07:13:31.224Z,-71
2018-03-16T07:14:31.110Z,-71
2018-03-16T07:15:31.234Z,-71
2018-03-16T07:16:31.109Z,-71
2018-03-16T07:17:31.309Z,-71
2018-03-16T07:18:31.113Z,-71
2018-03-16T07:19:31.232Z,-72
2018-03-16T07:20:31.114Z,-71
2018-03-16T07:21:31.231Z,-71
2018-03-16T07:22:31.138Z,-72
2018-03-16T07:23:31.233Z,-72
2018-03-16T07:24:31.116Z,-71
2018-03-16T07:25:31.237Z,-71
2018-03-16T07:26:31.118Z,-71
2018-03-16T07:27:31.254Z,-71
2018-03-16T07:28:31.119Z,-71
2018-03-16T07:29:31.238Z,-72
2018-03-16T07:30:31.122Z,-73
2018-03-16T07:31:31.236Z,-71
2018-03-16T07:32:31.147Z,-71
2018-03-16T07:33:31.239Z,-71
2018-03-16T07:34:31.124Z,-71
2018-03-16T07:35:31.238Z,-71
2018-03-16T07:36:31.126Z,-71
2018-03-16T07:37:31.266Z,-72
2018-03-16T07:38:31.128Z,-74
2018-03-16T07:39:31.242Z,-72
2018-03-16T07:40:31.126Z,-71
2018-03-16T07:41:31.245Z,-71
2018-03-16T07:42:31.151Z,-71
2018-03-16T07:43:31.243Z,-73
2018-03-16T07:44:31.129Z,-72
2018-03-16T07:45:31.246Z,-72
2018-03-16T07:46:31.132Z,-71
2018-03-16T07:47:31.273Z,-72
2018-03-16T07:48:31.132Z,-71
2018-03-16T07:49:31.247Z,-72
2018-03-16T07:50:31.137Z,-72
2018-03-16T07:51:31.252Z,-75
2018-03-16T07:52:31.161Z,-74
2018-03-16T07:53:31.257Z,-74
2018-03-16T07:54:31.140Z,-75
2018-03-16T07:55:31.255Z,-74
2018-03-16T07:56:31.141Z,-73
2018-03-16T07:57:31.279Z,-74
2018-03-16T07:58:31.139Z,-76
2018-03-16T07:59:31.261Z,-75
2018-03-16T08:00:31.143Z,-76
2018-03-16T08:01:31.261Z,-75
2018-03-16T08:02:31.169Z,-76
2018-03-16T08:03:31.258Z,-76
2018-03-16T08:04:31.145Z,-76
2018-03-16T08:05:31.264Z,-76
2018-03-16T08:06:31.149Z,-76
2018-03-16T08:07:31.290Z,-75
2018-03-16T08:08:31.149Z,-76
2018-03-16T08:09:31.268Z,-76
2018-03-16T08:10:31.151Z,-76
2018-03-16T08:11:31.272Z,-77
2018-03-16T08:12:31.174Z,-76
2018-03-16T08:13:31.267Z,-73
2018-03-16T08:14:31.151Z,-76
2018-03-16T08:15:31.270Z,-74
2018-03-16T08:16:31.155Z,-75
2018-03-16T08:17:31.293Z,-74
2018-03-16T08:18:31.155Z,-75
2018-03-16T08:19:31.271Z,-75
2018-03-16T08:20:31.158Z,-75
2018-03-16T08:21:31.268Z,-74
2018-03-16T08:22:31.192Z,-75
2018-03-16T08:23:31.277Z,-74
2018-03-16T08:24:31.158Z,-74
2018-03-16T08:25:31.275Z,-74
2018-03-16T08:26:31.161Z,-74
2018-03-16T08:27:31.302Z,-74
2018-03-16T08:28:31.188Z,-75
2018-03-16T08:29:31.309Z,-75
2018-03-16T08:30:31.164Z,-75
2018-03-16T08:31:31.281Z,-75
2018-03-16T08:32:31.165Z,-75
2018-03-16T08:33:31.309Z,-75
2018-03-16T08:34:31.172Z,-75
2018-03-16T08:35:31.283Z,-75
2018-03-16T08:36:31.168Z,-75
2018-03-16T08:37:31.285Z,-74
2018-03-16T08:38:31.198Z,-75
2018-03-16T08:39:31.291Z,-75
2018-03-16T08:40:31.171Z,-75
2018-03-16T08:41:31.289Z,-75
2018-03-16T08:42:31.176Z,-75
2018-03-16T08:43:31.311Z,-75
2018-03-16T08:44:31.172Z,-76
2018-03-16T08:45:31.291Z,-75
2018-03-16T08:46:31.176Z,-75
2018-03-16T08:47:31.320Z,-74
2018-03-16T08:48:31.177Z,-75
2018-03-16T08:49:31.300Z,-75
2018-03-16T08:50:31.178Z,-75
2018-03-16T08:51:31.298Z,-74
2018-03-16T08:52:31.179Z,-75
2018-03-16T08:53:31.327Z,-75
2018-03-16T08:54:31.207Z,-74
2018-03-16T08:55:31.295Z,-75
2018-03-16T08:56:31.183Z,-75
2018-03-16T08:57:31.301Z,-75
2018-03-16T08:58:31.209Z,-77
2018-03-16T08:59:31.298Z,-75
2018-03-16T09:00:31.184Z,-75
2018-03-16T09:01:31.299Z,-74
2018-03-16T09:02:31.188Z,-74
2018-03-16T09:03:31.325Z,-74
2018-03-16T09:04:31.188Z,-74
2018-03-16T09:05:31.304Z,-74
2018-03-16T09:06:31.189Z,-75
2018-03-16T09:07:31.307Z,-75
2018-03-16T09:08:31.214Z,-75
2018-03-16T09:09:31.307Z,-75
2018-03-16T09:10:31.193Z,-75
2018-03-16T09:11:31.308Z,-75
2018-03-16T09:12:31.234Z,-75
2018-03-16T09:13:31.388Z,-75
2018-03-16T09:14:31.193Z,-75
2018-03-16T09:15:31.310Z,-75
2018-03-16T09:16:31.198Z,-75
2018-03-16T09:17:31.317Z,-74
2018-03-16T09:18:31.221Z,-74
2018-03-16T09:19:31.315Z,-75
2018-03-16T09:20:31.202Z,-74
2018-03-16T09:21:31.316Z,-75
2018-03-16T09:22:31.201Z,-74
2018-03-16T09:23:31.339Z,-75
2018-03-16T09:24:31.202Z,-74
2018-03-16T09:25:31.440Z,-74
2018-03-16T09:26:31.203Z,-74
2018-03-16T09:27:31.317Z,-75
2018-03-16T09:28:31.228Z,-78
2018-03-16T09:29:31.320Z,-75
2018-03-16T09:30:31.206Z,-75
2018-03-16T09:31:31.320Z,-75
2018-03-16T09:32:31.209Z,-78
2018-03-16T09:33:31.347Z,-74
2018-03-16T09:34:31.208Z,-75
2018-03-16T09:35:31.322Z,-75
2018-03-16T09:36:31.213Z,-75
2018-03-16T09:37:31.330Z,-75
2018-03-16T09:38:31.237Z,-75
2018-03-16T09:39:31.331Z,-75
2018-03-16T09:40:31.214Z,-75
2018-03-16T09:41:31.330Z,-75
2018-03-16T09:42:31.215Z,-74
2018-03-16T09:43:31.357Z,-75
2018-03-16T09:44:31.219Z,-75
2018-03-16T09:45:31.335Z,-75
2018-03-16T09:46:31.218Z,-74
2018-03-16T09:47:31.331Z,-75
2018-03-16T09:48:31.243Z,-75
2018-03-16T09:49:31.338Z,-75
2018-03-16T09:50:31.345Z,-75
2018-03-16T09:51:31.615Z,-74
2018-03-16T09:52:31.223Z,-77
2018-03-16T09:53:31.367Z,-75
2018-03-16T09:54:31.226Z,-76
2018-03-16T09:55:31.342Z,-75
2018-03-16T09:56:31.226Z,-75
2018-03-16T09:57:31.340Z,-75
2018-03-16T09:58:31.251Z,-75
2018-03-16T09:59:31.346Z,-75
2018-03-16T10:00:31.229Z,-75
2018-03-16T10:01:31.345Z,-74
2018-03-16T10:02:31.230Z,-75
2018-03-16T10:03:31.374Z,-74
2018-03-16T10:04:31.232Z,-76
2018-03-16T10:05:31.348Z,-75
2018-03-16T10:06:31.233Z,-74
2018-03-16T10:07:31.348Z,-75
2018-03-16T10:08:31.259Z,-75
2018-03-16T10:09:31.350Z,-75
2018-03-16T10:10:31.235Z,-75
2018-03-16T10:11:31.352Z,-74
2018-03-16T10:12:31.237Z,-75
2018-03-16T10:13:31.380Z,-75
2018-03-16T10:14:31.238Z,-75
2018-03-16T10:15:31.354Z,-75
2018-03-16T10:16:31.242Z,-74
2018-03-16T10:17:31.356Z,-75
2018-03-16T10:18:31.267Z,-75
2018-03-16T10:19:31.362Z,-76
2018-03-16T10:20:31.242Z,-75
2018-03-16T10:21:31.359Z,-75
2018-03-16T10:22:31.244Z,-74
2018-03-16T10:23:31.386Z,-75
2018-03-16T10:24:31.246Z,-75
2018-03-16T10:25:31.364Z,-74
2018-03-16T10:26:31.245Z,-75
2018-03-16T10:27:31.368Z,-75
2018-03-16T10:28:31.275Z,-75
2018-03-16T10:29:31.362Z,-75
2018-03-16T10:30:31.254Z,-74
2018-03-16T10:31:31.362Z,-75
2018-03-16T10:32:31.252Z,-75
2018-03-16T10:33:31.393Z,-75
2018-03-16T10:34:31.252Z,-75
2018-03-16T10:35:31.373Z,-75
2018-03-16T10:36:31.266Z,-74
2018-03-16T10:37:31.595Z,-74
2018-03-16T10:38:31.278Z,-75
2018-03-16T10:39:31.397Z,-75
2018-03-16T10:40:31.257Z,-75
2018-03-16T10:41:31.374Z,-74
2018-03-16T10:42:31.257Z,-75
2018-03-16T10:43:31.453Z,-75
2018-03-16T10:44:31.262Z,-75
2018-03-16T10:45:31.370Z,-76
2018-03-16T10:46:31.266Z,-74
2018-03-16T10:47:31.377Z,-74
2018-03-16T10:48:31.284Z,-74
2018-03-16T10:49:31.377Z,-75
2018-03-16T10:50:31.269Z,-75
2018-03-16T10:51:31.538Z,-74
2018-03-16T10:52:31.265Z,-75
2018-03-16T10:53:31.405Z,-75
2018-03-16T10:54:31.267Z,-74
2018-03-16T10:55:31.385Z,-75
2018-03-16T10:56:31.266Z,-74
2018-03-16T10:57:31.386Z,-74
2018-03-16T10:58:31.293Z,-74
2018-03-16T10:59:31.387Z,-74
2018-03-16T11:00:31.269Z,-74
2018-03-16T11:01:31.388Z,-74
2018-03-16T11:02:31.290Z,-74
2018-03-16T11:03:31.408Z,-75
2018-03-16T11:04:31.273Z,-74
2018-03-16T11:05:31.388Z,-74
2018-03-16T11:06:31.275Z,-74
2018-03-16T11:07:31.393Z,-74
2018-03-16T11:08:31.300Z,-74
2018-03-16T11:09:31.392Z,-74
2018-03-16T11:10:31.281Z,-74
2018-03-16T11:11:31.397Z,-74
2018-03-16T11:12:31.278Z,-74
2018-03-16T11:13:31.426Z,-74
2018-03-16T11:14:31.282Z,-75
2018-03-16T11:15:31.401Z,-74
2018-03-16T11:16:31.397Z,-74
2018-03-16T11:17:31.406Z,-74
2018-03-16T11:18:31.307Z,-74
2018-03-16T11:19:31.403Z,-74
2018-03-16T11:20:31.284Z,-74
2018-03-16T11:21:31.404Z,-74
2018-03-16T11:22:31.315Z,-74
2018-03-16T11:23:31.535Z,-74
2018-03-16T11:24:31.293Z,-75
2018-03-16T11:25:31.412Z,-75
2018-03-16T11:26:32.320Z,-74
2018-03-16T11:27:31.405Z,-74
2018-03-16T11:28:31.313Z,-74
2018-03-16T11:29:31.408Z,-75
2018-03-16T11:30:31.293Z,-74
2018-03-16T11:31:31.409Z,-74
2018-03-16T11:32:31.292Z,-74
2018-03-16T11:33:31.440Z,-74
2018-03-16T11:34:31.294Z,-75
2018-03-16T11:35:31.414Z,-74
2018-03-16T11:36:31.294Z,-74
2018-03-16T11:37:31.476Z,-74
2018-03-16T11:38:31.319Z,-74
2018-03-16T11:39:31.415Z,-75
2018-03-16T11:40:31.300Z,-74
2018-03-16T11:41:31.416Z,-74
2018-03-16T11:42:31.399Z,-75
2018-03-16T11:43:31.441Z,-74
2018-03-16T11:44:31.300Z,-74
2018-03-16T11:45:31.418Z,-74
2018-03-16T11:46:31.302Z,-75
2018-03-16T11:47:31.417Z,-76
2018-03-16T11:48:31.304Z,-76
2018-03-16T11:49:31.673Z,-74
2018-03-16T11:50:31.313Z,-74
2018-03-16T11:51:31.423Z,-74
2018-03-16T11:52:31.348Z,-74
2018-03-16T11:53:31.421Z,-74
2018-03-16T11:54:31.390Z,-74
2018-03-16T11:55:31.424Z,-75
2018-03-16T11:56:31.312Z,-74
2018-03-16T11:57:31.427Z,-74
2018-03-16T11:58:31.312Z,-74
2018-03-16T11:59:31.456Z,-74
2018-03-16T12:00:31.312Z,-74
2018-03-16T12:01:31.434Z,-74
2018-03-16T12:02:31.315Z,-74
2018-03-16T12:03:31.433Z,-74
2018-03-16T12:04:31.339Z,-75
2018-03-16T12:05:31.439Z,-74
2018-03-16T12:06:31.317Z,-74
2018-03-16T12:07:31.432Z,-74
2018-03-16T12:08:31.318Z,-74
2018-03-16T12:09:31.466Z,-74
2018-03-16T12:10:31.323Z,-74
2018-03-16T12:11:31.438Z,-74
2018-03-16T12:12:31.320Z,-75
2018-03-16T12:13:31.439Z,-75
2018-03-16T12:14:31.345Z,-74
2018-03-16T12:15:31.439Z,-74
2018-03-16T12:16:31.324Z,-74
2018-03-16T12:17:31.444Z,-75
2018-03-16T12:18:31.326Z,-74
2018-03-16T12:19:31.469Z,-75
2018-03-16T12:20:31.327Z,-74
2018-03-16T12:21:31.446Z,-74
2018-03-16T12:22:31.329Z,-74
2018-03-16T12:23:31.464Z,-74
2018-03-16T12:24:31.352Z,-75
2018-03-16T12:25:31.446Z,-74
2018-03-16T12:26:31.330Z,-77
2018-03-16T12:27:31.451Z,-74
2018-03-16T12:28:49.374Z,-75
2018-03-16T12:29:31.470Z,-75
2018-03-16T12:30:31.337Z,-75
2018-03-16T12:31:31.450Z,-74
2018-03-16T12:32:31.335Z,-74
2018-03-16T12:33:31.458Z,-76
2018-03-16T12:34:31.398Z,-75
2018-03-16T12:35:31.451Z,-76
2018-03-16T12:36:31.337Z,-75
2018-03-16T12:37:31.457Z,-75
2018-03-16T12:38:31.358Z,-75
2018-03-16T12:39:31.487Z,-75
2018-03-16T12:40:31.342Z,-77
2018-03-16T12:41:31.461Z,-77
2018-03-16T12:43:31.677Z,-77
2018-03-16T12:44:31.367Z,-76
2018-03-16T12:45:31.466Z,-77
2018-03-16T12:46:31.351Z,-77
2018-03-16T12:47:31.512Z,-76
2018-03-16T12:48:31.348Z,-76
2018-03-16T12:49:31.487Z,-75
2018-03-16T12:50:31.348Z,-74
2018-03-16T12:51:31.474Z,-74
2018-03-16T12:52:31.354Z,-77
2018-03-16T12:53:31.518Z,-76
2018-03-16T12:54:31.373Z,-75
2018-03-16T12:55:31.467Z,-76
2018-03-16T12:56:31.355Z,-77
2018-03-16T12:57:31.468Z,-75
2018-03-16T12:58:31.355Z,-74
2018-03-16T12:59:31.493Z,-74
2018-03-16T13:00:31.354Z,-74
2018-03-16T13:01:31.477Z,-74
2018-03-16T13:02:31.357Z,-75
2018-03-16T13:03:31.470Z,-75
2018-03-16T13:04:31.381Z,-75
2018-03-16T13:05:31.476Z,-74
2018-03-16T13:06:31.357Z,-73
2018-03-16T13:07:31.475Z,-74
2018-03-16T13:08:31.410Z,-73
2018-03-16T13:09:31.501Z,-74
2018-03-16T13:10:31.361Z,-74
2018-03-16T13:11:31.479Z,-74
2018-03-16T13:12:31.366Z,-73
2018-03-16T13:13:31.489Z,-73
2018-03-16T13:14:31.386Z,-74
2018-03-16T13:15:31.489Z,-73
2018-03-16T13:16:31.369Z,-74
2018-03-16T13:17:31.483Z,-73
2018-03-16T13:18:31.367Z,-73
2018-03-16T13:19:31.509Z,-73
2018-03-16T13:20:31.368Z,-74
2018-03-16T13:21:31.488Z,-73
2018-03-16T13:22:31.370Z,-73
2018-03-16T13:23:31.488Z,-73
2018-03-16T13:24:31.441Z,-74
2018-03-16T13:25:31.487Z,-74
2018-03-16T13:26:31.373Z,-73
2018-03-16T13:27:31.536Z,-73
2018-03-16T13:28:31.413Z,-73
2018-03-16T13:29:31.513Z,-73
2018-03-16T13:30:31.381Z,-74
2018-03-16T13:31:31.493Z,-74
2018-03-16T13:32:31.376Z,-74
2018-03-16T13:33:31.496Z,-74
2018-03-16T13:34:31.402Z,-75
2018-03-16T13:35:31.498Z,-73
2018-03-16T13:36:31.383Z,-73
2018-03-16T13:37:31.496Z,-73
2018-03-16T13:38:31.382Z,-74
2018-03-16T13:39:31.521Z,-74
2018-03-16T13:40:31.384Z,-73
2018-03-16T13:41:31.499Z,-73
2018-03-16T13:42:31.383Z,-73
2018-03-16T13:43:31.506Z,-73
2018-03-16T13:44:31.411Z,-74
2018-03-16T13:45:31.503Z,-73
2018-03-16T13:46:31.387Z,-73
2018-03-16T13:47:31.510Z,-74